Huvudsida
METAR-TAF:

METAR-TAF

Flygplatser :

Bahrain, Bahrain

Bahrains internationella flygplats

latitud: 26-16N, longitud: 050-39E, höjd: 2 m

Aktuellt väderrapport

Denna rapport gjordes för 17 minuter sedan, klockan 04:30 UTC
Vind 2 kt från ost
Temperatur 19°C
Fuktighet 83%
Tryck 1011 hPa
Sikt 10 km eller mer
Inga moln under 1 500 m eller inga cumulonimbus

METAR: OBBI 230430Z 09002KT CAVOK 19/16 Q1011 NOSIG

Tid: 07:47 (04:47 UTC)

Väderprognos

Denna rapport gjordes för 5 timmar och 47 minuter sedan, klockan 23:00 UTC
Prognos gäller från 23 kl. 00 UTC till 24 kl. 06 UTC
Vind 5 kt varierande vindriktning
Sikt 10 km eller mer
Inga moln under 1 500 m eller inga cumulonimbus

TAF: OBBI 222300Z 2300/2406 VRB05KT CAVOK

Aktuella väderrapporter och prognoser från 4000 flygplatser (METAR- och TAF-rapporter).

De tillgängliga stationerna syns som gula och röda prickar på kartan.

För musen över prickarna för att se namnen på stationerna.

Klicka sedan för att få väderrapporter och prognoser.

För att ändra kartan: Klicka på de gröna knapparna med ett svart kors på för att zooma in; den gröna knappen med ett streck på för att zooma ut; eller på de gröna pilarna för angränsande kartor.


METAR-TAF: